Wyatt, IN (46595)

1:42 PM EDT on August 27, 2016 (GMT -0400)
Woodland | | Change Station
Active Advisory: Flood Warning

Elev 850 ft 41.56 °N, 86.16 °W | Updated 1 second ago

Mostly Cloudy
Mostly Cloudy
76.5 °F
Feels Like 77 °F
N
5.1
Wind Variable Wind from SE
Gusts 7.4 mph

Today
High -- | Low -- °F
--% Chance of Precip.
Yesterday
High -- | Low -- °F
Precip. -- in
Pressure 30.09 in
Visibility 10.0 miles
Clouds Mostly Cloudy 1100 ft
Mostly Cloudy 9500 ft
Heat Index 77 °F
Dew Point 73 °F
Humidity 90%
Rainfall 0.71 in
Snow Depth Not available.
7:06 AM 8:25 PM
Waning Crescent, 23% visible
SPECI KSBN 271733Z 17005KT 10SM BKN011 BKN095 24/22 A3009 RMK AO2 T02390217
Pressure 30.09 in
Visibility 10.0 miles
Clouds Mostly Cloudy 1100 ft
Mostly Cloudy 9500 ft
Heat Index 77 °F
Dew Point 73 °F
Humidity 90%
Rainfall 0.71 in
Snow Depth Not available.
7:06 AM 8:25 PM
Waning Crescent, 23% visible
SPECI KSBN 271733Z 17005KT 10SM BKN011 BKN095 24/22 A3009 RMK AO2 T02390217

10-Day Weather Forecast

Almanac

Astronomy

Aug. 27, 2016 Rise Set
Actual Time
Civil Twilight
Nautical Twilight
Astronomical Twilight
Moon
Length of Visible Light
Length of Day
Tomorrow will be .
, % of the Moon is Illuminated

Today's Extremes

State Highs State Lows

Community

WunderPhotos

Upload Photos

1,935,387 photos uploaded!

WunderBlog® & News

Nearby

Air Quality

  Air Quality AQ Index Pollutant
Not available.

Snow Depth

Station Depth Elevation

Earthquake Activity

City Distance Mag. Time & Date
Minimum magnitude displayed is 2.5.

Coastal Water Temperatures

Place Temperature

Stations

Nearby Weather Stations

Station Location Temp. Windchill Dew Point Humidity Wind Precip. Elev Updated Type
                   

Watches & Warnings

Flood Warning
Issued: 9:53 AM CDT Aug. 27, 2016 – National Weather Service

the Flood Warning has been extended for
the Kankakee River at Davis
* until Wednesday evening.
* At 9 am Saturday the stage was 10.7 feet and steady.
* Minor flooding is occurring and minor flooding is forecast.
* Flood stage is 10.0 feet.
* Forecast... the river will fall below the 10.0 foot flood stage
around 7 PM Tuesday August 30.
* At 11.0 feet... flooding of secondary roads near the river begins.


Lat... Lon 4145 8667 4144 8661 4130 8673 4131 8679
      4143 8670